x

Montauk Point -23 Nm Ssw Of Montauk Point, Ny (44017) Wave Buoy

8:50am - Sun 22nd Jul 2018 All times are EDT. -4 hours from GMT.

  • Sig Wave height 6.9ft
  • Swell Direction
  • Peak Period 6s
  • Average Period 5s
  • Wind
    20mph, 27mph gusts
  • Sea Temp 71°f
  • Air Temp 72°f
  • Sea Pressure 1014.8mb
  • Montauk Point -23 Nm Ssw Of Montauk Point, Ny
  • Montauk Point -23 Nm Ssw Of Montauk Point, Ny

More Historic Weather Station data

Upgrade to MSW Pro to gain access to the past 30 days of data for over 8000 Wavebouys and Weather Stations around the globe.

Join

Comparision Forecast

View Surf forecast
   
Sun 07/22 8:50am 7ft 6s 5s 20 27 mph 1014.8mb 71f 72f
7:50am 6.5ft 7s 5s 22 27 mph 1014.3mb 71f 72f
5:50am 7ft 7s 5s 22 29 mph 1012.6mb 71f 72f
4:50am 6.5ft 6s 5s 25 31 mph 1012.2mb 71f 72f
3:50am 7ft 6s 5s 27 36 mph 1012.6mb 71f 72f
2:50am 7.5ft 7s 5s 25 29 mph 1013.6mb 71f 71f
1:50am 7ft 6s 5s 27 31 mph 1014.3mb 71f 71f
12:50am 7.5ft 6s 5s 27 31 mph 1014.3mb 71f 71f
Sat 07/21 11:50pm 7ft 7s 5s 27 31 mph 1015.1mb 71f 70f
9:50pm 6ft 6s 5s 27 34 mph 1016.3mb 72f 69f
8:50pm 5.5ft 6s 5s 25 29 mph 1016.5mb 72f 68f
7:50pm 5ft 5s 5s 25 27 mph 1016.8mb 72f 68f
6:50pm 4.5ft 5s 5s 25 27 mph 1017.1mb 72f 68f
5:50pm 4.5ft 5s 4s 22 25 mph 1017.4mb 72f 68f
4:50pm 4ft 5s 4s 22 27 mph 1017.7mb 73f 67f
3:50pm 4ft 5s 4s 20 25 mph 1017.9mb 73f 67f
2:50pm 4ft 5s 4s 20 25 mph 1018.6mb 73f 67f
1:50pm 3.5ft 4s 4s 20 25 mph 1019.3mb 73f 67f
12:50pm 3.5ft 8s 4s 20 25 mph 1019.8mb 73f 67f
10:50am 3ft 8s 4s 18 22 mph 1020.5mb 73f 68f
9:50am 2.5ft 8s 4s 16 18 mph 1020.1mb 73f 69f
8:50am 2.5ft 8s 5s 13 16 mph 1020.5mb 73f 69f
7:50am 2.5ft 7s 5s 13 16 mph 1020.3mb 73f 69f
6:50am 2.5ft 7s 5s 11 13 mph 1020.2mb 72f 69f
5:50am 2.5ft 8s 5s 9 11 mph 1020.3mb 73f 69f
4:50am 2.5ft 7s 5s 9 13 mph 1020.3mb 73f 69f
3:50am 2.5ft 8s 5s 11 16 mph 1020mb 73f 69f
1:50am 2ft 8s 5s 11 13 mph 1020.3mb 73f 70f
12:50am 2ft 8s 5s 9 11 mph 1020.7mb 73f 71f
Fri 07/20 11:50pm 2ft 8s 5s 9 11 mph 1021mb 73f 71f
10:50pm 2ft 8s 5s 9 11 mph 1021.5mb 73f 71f
9:50pm 2ft 8s 5s 11 13 mph 1021.6mb 73f 71f
8:50pm 2ft 8s 5s 11 13 mph 1021.3mb 74f 72f
7:50pm 2ft 8s 5s 11 11 mph 1021.1mb 74f 72f
6:50pm 2ft 8s 5s 9 11 mph 1021mb 74f 72f
5:50pm 2ft 7s 6s 9 11 mph 1021.1mb 75f 73f
4:50pm 2.5ft 8s 6s 9 11 mph 1021.4mb 75f 73f
2:50pm 2ft 8s 6s 4 7 mph 1022.1mb 76f 73f
1:50pm 2ft 8s 6s 4 7 mph 1022.5mb 74f 73f
12:50pm 2ft 8s 6s 4 4 mph 1022.7mb 75f 72f
11:50am 2ft 8s 7s 4 7 mph 1022.8mb 74f 72f
10:50am 2ft 8s 6s 4 7 mph 1022.9mb 75f 72f
9:50am 2ft 8s 6s 2 2 mph 1022.5mb 74f 73f
8:50am 2ft 8s 6s 2 2 mph 1022.4mb 73f 73f
6:50am 2.5ft 8s 7s 2 2 mph 1021.5mb 72f 73f
5:50am 2.5ft 8s 7s  -  2 mph 1021.3mb 72f 71f
4:50am 2ft 8s 6s 2 4 mph 1021.2mb 72f 71f
2:50am 2ft 8s 6s 7 7 mph 1020.9mb 73f 71f
1:50am 2ft 8s 6s 9 9 mph 1020.9mb 73f 71f
12:50am 2ft 9s 6s 7 9 mph 1021mb 73f 72f
Thu 07/19 11:50pm 2ft 8s 6s 4 7 mph 1020.7mb 73f 72f
10:50pm 2ft 8s 6s 7 9 mph 1020.6mb 73f 72f
9:50pm 2ft 8s 6s 9 11 mph 1020.4mb 73f 72f
8:50pm 2.5ft 8s 6s 9 11 mph 1019.9mb 73f 72f
7:50pm 2.5ft 8s 6s 9 9 mph 1019.6mb 74f 72f
6:50pm 2.5ft 7s 6s 7 7 mph 1019.5mb 74f 72f
5:50pm 2.5ft 8s 6s 4 7 mph 1019.3mb 74f 72f
4:50pm 2.5ft 7s 6s 4 4 mph 1019.3mb 75f 72f
3:50pm 2.5ft 8s 6s 2 4 mph 1019.3mb 75f 71f
2:50pm 2.5ft 8s 6s 4 7 mph 1019.4mb 74f 70f
1:50pm 2.5ft 8s 6s 4 7 mph 1019.7mb 73f 69f
12:50pm 2.5ft 8s 5s 7 9 mph 1019.9mb 73f 69f
11:50am 2.5ft 8s 5s 9 11 mph 1019.9mb 73f 69f
10:50am 2.5ft 8s 5s 9 11 mph 1019.4mb 72f 69f
9:50am 2.5ft 8s 4s 11 13 mph 1019mb 71f 67f
8:50am 2.5ft 8s 4s 13 16 mph 1018.6mb 71f 68f
7:50am 3ft 8s 5s 16 18 mph 1018.1mb 71f 68f
6:50am 2.5ft 9s 4s 16 20 mph 1017.3mb 72f 68f
5:50am 2.5ft 8s 5s 16 18 mph 1017.1mb 72f 69f
4:50am 2.5ft 7s 6s 13 16 mph 1016.5mb 72f 70f
3:50am 2.5ft 8s 6s 11 13 mph 1016.1mb 73f 71f
2:50am 3.5ft 8s 6s 2 4 mph 1015.7mb 73f 72f
1:50am 3.5ft 8s 6s 4 7 mph 1015.4mb 73f 72f
12:50am 3.5ft 8s 6s 4 4 mph 1015mb 73f 73f
Wed 07/18 11:50pm 3.5ft 8s 6s 11 13 mph 1014.5mb 73f 72f
10:50pm 3.5ft 8s 7s 13 16 mph 1014.1mb 73f 74f
9:50pm 3.5ft 8s 7s 9 13 mph 1013.9mb 74f 76f
8:50pm 3.5ft 7s 7s 7 9 mph 1013.2mb 73f 74f
7:50pm 4ft 8s 7s 4 4 mph 1012.7mb 74f 74f
6:50pm 3.5ft 8s 7s 7 7 mph 1012.2mb 75f 75f
4:50pm 3ft 9s 6s 4 4 mph 1011.8mb 75f 75f
3:50pm 3ft 9s 6s  -  4 mph 1011.5mb 74f 74f